Voyageurs National Park, MN

5:35 PM CDT on March 31, 2015 (GMT -0500)
Wayside Lane | | Change Station
CLOSE
Current Station
Personal Weather Station
Location: International Falls, MN
Elevation: 1115 ft
Nearby Weather Stations

Elev 1115 ft 48.60 °N, 93.42 °W | Updated 8 minutes ago

Scattered Clouds
Scattered Clouds
47.0 °F
Feels Like 47 °F
N
0.0
Wind Variable Wind from ENE
Gusts 5.0 mph

Today
High -- | Low -- °F
--% Chance of Precip.
Yesterday
High -- | Low -- °F
Precip. -- in
6:54 AM 7:42 PM
Waxing Gibbous, 89% visible
Pressure 29.91 in
Visibility 10.0 miles
Clouds Scattered Clouds 4700 ft
Windchill 47 °F
Dew Point 34 °F
Humidity 61%
Rainfall 0.02 in
Snow Depth Not available.
UV 2 out of 12
Pollen .90 out of 12
Air Quality Not available.
Flu Activity Not available.
METAR KINL 312155Z AUTO 06008KT 10SM SCT047 09/00 A2988 RMK AO2 SLP129 T00890000

More Conditions Fewer Conditions

Pressure 29.91 in
Visibility 10.0 miles
Clouds Scattered Clouds 4700 ft
Windchill 47 °F
Dew Point 34 °F
Humidity 61%
Rainfall 0.02 in
Snow Depth Not available.
UV 2 out of 12
Pollen .90 out of 12
Air Quality Not available.
Flu Activity Not available.
METAR KINL 312155Z AUTO 06008KT 10SM SCT047 09/00 A2988 RMK AO2 SLP129 T00890000

More Conditions Fewer Conditions

10-Day Weather Forecast

Almanac

Astronomy

Mar. 31, 2015 Rise Set
Actual Time
Civil Twilight
Nautical Twilight
Astronomical Twilight
Moon
Length of Visible Light
Length of Day
Tomorrow will be .
, % of the Moon is Illuminated

Today's Extremes

State Highs State Lows

Community

WunderPhotos

Upload Photos

1,809,859 photos uploaded!

WunderBlogs® & News

Nearby

Air Quality

  Air Quality AQ Index Pollutant
Not available.

Snow Depth

Station Depth Elevation

Earthquake Activity

City Distance Mag. Time & Date
Minimum magnitude displayed is 2.5.

Coastal Water Temperatures

Place Temperature

Stations

Nearby Weather Stations

Station Location Temp. Windchill Dew Point Humidity Wind Precip. Elev Updated Type